Карточка аэропорта UHMD

Внимание!
Информация на этой странице в стадии наполнения.
Если вы не увидели какой-то информации, или заметили неточность - пожалуйста сообщите нам!
Спасибо!
Команда RU-STAFF
Название аэропортаПровидения Бухта
Название аэропорта (англ.)Provideniya bay
Превышение72 ft. (21.9 m.)
Координаты64°22.74', -173°-14.58'
Высота перехода1700
Эшелон перехода4550
Коды ответчика1000
Зона ОрВДМагадан РПИ (UHMM)
Данные METARUHMD 150500Z 21004MPS 9999 SCT036 BKN060 09/06 Q1001 RMK QFE750/1000
Проноз погоды (TAF)UHMD 150146Z 1503/1509 21003G08MPS 9999 SCT005 BKN023 TEMPO 1503/1509 18008MPS 1100 SHRA BR SCT003 BKN010CB
NOTAMshow/hide NOTAM
AWOS   TABLE

Информация о ВПП


Диспетчерские позиции




Спутниковое изображение